Friday, April 27, 2018, 6:22 AM GMT
Back to Local

CYGP, Gaspe, Que.

Location: , , Canada Lat: 48.767
Local Time: 6:22 AM GMT ( 6:22 GMT) Lon: -64.483
Time Zone: GMT Elev: 108 ft

Show me the last for .
Show Coded

Time T Td Feel RH Dir Speed Gust Alt SLP Vis Weather Sky Remarks
2018-04-27 04:00 46 45 45 93 Variable 3 - 29.40 29.41 8 SCT014 None
2018-04-26 21:00 46 45 40 93 50° 14 - 29.53 29.54 1 -RA BR BKN009 OVC014 None
2018-04-26 20:46 46 45 41 93 60° 13 - 29.54 29.55 1 -RA BR OVC010 None
2018-04-26 20:00 46 43 38 87 70° 14 23 29.57 29.57 4 -RA BR OVC014 Pressure falling rapidly
2018-04-26 19:52 46 45 38 93 110° 13 26 29.57 29.58 3 -RA BR OVC014 None
2018-04-26 19:00 48 46 40 93 140° 17 28 29.62 29.62 1 -RA BR SCT010 OVC014 None
2018-04-26 18:00 45 45 38 100 100° 13 - 29.66 29.67 1 -RA BR SCT010 OVC015 None
2018-04-26 17:52 45 45 38 100 100° 13 - 29.67 29.68 1 -RA BR OVC010 Pressure falling rapidly
2018-04-26 17:31 43 41 34 93 90° 14 21 29.69 29.70 0 -RA BR VV003 None
2018-04-26 17:00 43 41 37 93 90° 10 - 29.72 29.72 2 -RA BR BKN004 OVC012 Pressure falling rapidly
2018-04-26 16:34 43 41 34 93 70° 14 20 29.74 29.75 2 -RA BR OVC004 None
2018-04-26 16:00 45 43 35 93 90° 12 25 29.77 29.78 3 -RA BR SCT006 BKN010 OVC020 Pressure falling rapidly
2018-04-26 15:14 43 43 37 100 80° 12 - 29.81 29.82 3 -RA BR BKN006 OVC010 None
2018-04-26 15:00 45 43 38 93 90° 13 - 29.82 29.83 4 -RA BR SCT010 OVC015 None
2018-04-26 14:00 45 43 39 93 80° 12 - 29.85 29.86 4 -RA BR FEW010 OVC020 None
2018-04-26 13:00 43 43 36 100 80° 13 - 29.88 29.88 4 -RA BR FEW010 SCT015 OVC025 None
2018-04-26 12:00 43 41 36 93 70° 14 - 29.92 29.92 7 FEW010 OVC015 None
2018-04-26 11:00 43 41 36 93 70° 13 - 29.94 29.95 7 -RA FEW010 OVC015 None
2018-04-26 10:08 37 34 35 86 90° 3 - 29.95 29.96 12 -RA OVC015 None
2018-04-26 10:00 37 34 - 86 Variable 2 - 29.96 29.97 15 OVC015 None
2018-04-26 09:34 37 32 - 80 - Calm - 29.96 29.97 15 OVC015 None
2018-04-26 09:00 37 32 - 80 - Calm - 29.97 29.97 15 -RA OVC020 None
2018-04-26 08:00 37 32 - 80 Variable 2 - 29.98 29.99 15 -RA OVC060 None
2018-04-26 07:00 37 32 - 80 - Calm - 30.00 30.00 15 BKN080 None

Support USWX by starting your Amazon purchase here.